createdAt,value
2022-10-08T00:00:08.981Z,0.00
2022-10-08T00:01:08.980Z,0.00
2022-10-08T00:02:09.066Z,0.00
2022-10-08T00:03:08.950Z,0.00
2022-10-08T00:04:09.002Z,0.00
2022-10-08T00:05:08.926Z,0.00
2022-10-08T00:06:08.927Z,0.00
2022-10-08T00:07:08.920Z,0.00
2022-10-08T00:08:08.894Z,0.00
2022-10-08T00:09:08.889Z,0.00
2022-10-08T00:10:08.892Z,0.00
2022-10-08T00:11:08.874Z,0.00
2022-10-08T00:12:08.849Z,0.00
2022-10-08T00:13:08.838Z,0.00
2022-10-08T00:14:08.829Z,0.00
2022-10-08T00:15:08.816Z,0.00
2022-10-08T00:16:08.851Z,0.00
2022-10-08T00:17:08.794Z,0.00
2022-10-08T00:18:08.783Z,0.00
2022-10-08T00:19:08.772Z,0.00
2022-10-08T00:20:08.764Z,0.00
2022-10-08T00:21:08.761Z,0.00
2022-10-08T00:22:08.742Z,0.00
2022-10-08T00:23:08.728Z,0.00
2022-10-08T00:24:08.723Z,0.00
2022-10-08T00:25:08.707Z,0.00
2022-10-08T00:26:08.729Z,0.00
2022-10-08T00:27:08.685Z,0.00
2022-10-08T00:28:08.739Z,0.00
2022-10-08T00:29:08.664Z,0.00
2022-10-08T00:30:08.652Z,0.00
2022-10-08T00:31:08.732Z,0.00
2022-10-08T00:32:08.631Z,0.00
2022-10-08T00:33:08.618Z,0.00
2022-10-08T00:34:08.612Z,0.00
2022-10-08T00:35:08.597Z,0.00
2022-10-08T00:36:08.597Z,0.00
2022-10-08T00:37:08.577Z,0.00
2022-10-08T00:38:08.568Z,0.00
2022-10-08T00:39:08.555Z,0.00
2022-10-08T00:40:08.545Z,0.00
2022-10-08T00:41:08.544Z,0.00
2022-10-08T00:42:08.539Z,0.00
2022-10-08T00:43:08.510Z,0.00
2022-10-08T00:44:08.500Z,0.00
2022-10-08T00:45:08.486Z,0.00
2022-10-08T00:46:08.528Z,0.00
2022-10-08T00:47:08.465Z,0.00
2022-10-08T00:48:08.457Z,0.00
2022-10-08T00:49:08.446Z,0.00
2022-10-08T00:50:08.437Z,0.00
2022-10-08T00:51:08.433Z,0.00
2022-10-08T00:52:08.413Z,0.00
2022-10-08T00:53:08.400Z,0.00
2022-10-08T00:54:08.391Z,0.00
2022-10-08T00:55:08.382Z,0.00
2022-10-08T00:56:08.388Z,0.00
2022-10-08T00:57:08.361Z,0.00
2022-10-08T00:58:08.366Z,0.00
2022-10-08T00:59:08.335Z,0.00
2022-10-08T01:00:08.325Z,0.00
2022-10-08T01:01:08.471Z,0.00
2022-10-08T01:02:08.461Z,0.00
2022-10-08T01:03:08.296Z,0.00
2022-10-08T01:04:08.281Z,0.00
2022-10-08T01:05:08.279Z,0.00
2022-10-08T01:06:08.270Z,0.00
2022-10-08T01:07:08.245Z,0.00
2022-10-08T01:08:08.241Z,0.00
2022-10-08T01:09:08.225Z,0.00
2022-10-08T01:10:08.216Z,0.00
2022-10-08T01:11:08.222Z,0.00
2022-10-08T01:12:08.193Z,0.00
2022-10-08T01:13:08.180Z,0.00
2022-10-08T01:14:08.192Z,0.00
2022-10-08T01:15:08.158Z,0.00
2022-10-08T01:16:08.203Z,0.00
2022-10-08T01:17:08.141Z,0.00
2022-10-08T01:18:08.128Z,0.00
2022-10-08T01:19:08.121Z,0.00
2022-10-08T01:20:08.138Z,0.00
2022-10-08T01:21:08.105Z,0.00
2022-10-08T01:22:08.113Z,0.00
2022-10-08T01:23:08.112Z,0.00
2022-10-08T01:24:08.063Z,0.00
2022-10-08T01:25:08.052Z,0.00
2022-10-08T01:26:08.049Z,0.00
2022-10-08T01:27:08.031Z,0.00
2022-10-08T01:28:08.113Z,0.00
2022-10-08T01:29:08.006Z,0.00
2022-10-08T01:30:08.013Z,0.00
2022-10-08T01:31:08.034Z,0.00
2022-10-08T01:32:07.974Z,0.00
2022-10-08T01:33:07.960Z,0.00
2022-10-08T01:34:07.952Z,0.00
2022-10-08T01:35:07.946Z,0.00
2022-10-08T01:36:07.973Z,0.00
2022-10-08T01:37:07.926Z,0.00
2022-10-08T01:38:07.907Z,0.00
2022-10-08T01:39:07.930Z,0.00
2022-10-08T01:40:07.888Z,0.00
2022-10-08T01:41:07.886Z,0.00
2022-10-08T01:42:08.042Z,0.00
2022-10-08T01:43:07.852Z,0.00
2022-10-08T01:44:07.842Z,0.00
2022-10-08T01:45:07.831Z,0.00
2022-10-08T01:46:07.956Z,0.00
2022-10-08T01:47:07.815Z,0.00
2022-10-08T01:48:07.799Z,0.00
2022-10-08T01:49:07.790Z,0.00
2022-10-08T01:50:07.777Z,0.00
2022-10-08T01:51:07.778Z,0.00
2022-10-08T01:52:07.757Z,0.00
2022-10-08T01:53:07.745Z,0.00
2022-10-08T01:54:07.733Z,0.00
2022-10-08T01:55:07.723Z,0.00
2022-10-08T01:56:07.724Z,0.00
2022-10-08T01:57:07.701Z,0.00
2022-10-08T01:58:15.345Z,0.00
2022-10-08T01:59:07.676Z,0.00
2022-10-08T02:00:07.681Z,0.00
2022-10-08T02:01:07.759Z,0.00
2022-10-08T02:02:07.806Z,0.00
2022-10-08T02:03:07.634Z,0.00
2022-10-08T02:04:07.624Z,0.00
2022-10-08T02:05:07.612Z,0.00
2022-10-08T02:06:07.614Z,0.00
2022-10-08T02:07:07.725Z,0.00
2022-10-08T02:08:07.580Z,0.00
2022-10-08T02:09:07.569Z,0.00
2022-10-08T02:10:07.559Z,0.00
2022-10-08T02:11:07.569Z,0.00
2022-10-08T02:12:07.663Z,0.00
2022-10-08T02:13:07.523Z,0.00
2022-10-08T02:14:07.515Z,0.00
2022-10-08T02:15:07.503Z,0.00
2022-10-08T02:16:07.517Z,0.00
2022-10-08T02:17:07.481Z,0.00
2022-10-08T02:18:07.504Z,0.00
2022-10-08T02:19:07.459Z,0.00
2022-10-08T02:20:07.450Z,0.00
2022-10-08T02:21:07.450Z,0.00
2022-10-08T02:22:07.519Z,0.00
2022-10-08T02:23:07.420Z,0.00
2022-10-08T02:24:07.405Z,0.00
2022-10-08T02:25:07.394Z,0.00
2022-10-08T02:26:07.396Z,0.00
2022-10-08T02:27:07.464Z,0.00
2022-10-08T02:28:07.494Z,0.00
2022-10-08T02:29:07.350Z,0.00
2022-10-08T02:30:07.340Z,0.00
2022-10-08T02:31:07.341Z,0.00
2022-10-08T02:32:07.471Z,0.00
2022-10-08T02:33:07.307Z,0.00
2022-10-08T02:34:07.315Z,0.00
2022-10-08T02:35:07.287Z,0.00
2022-10-08T02:36:07.283Z,0.00
2022-10-08T02:37:07.344Z,0.00
2022-10-08T02:38:07.253Z,0.00
2022-10-08T02:39:07.242Z,0.00
2022-10-08T02:40:07.231Z,0.00
2022-10-08T02:41:07.230Z,0.00
2022-10-08T02:42:07.241Z,0.00
2022-10-08T02:43:07.198Z,0.00
2022-10-08T02:44:07.188Z,0.00
2022-10-08T02:45:07.175Z,0.00
2022-10-08T02:46:07.253Z,0.00
2022-10-08T02:47:07.184Z,0.00
2022-10-08T02:48:07.142Z,0.00
2022-10-08T02:49:07.133Z,0.00
2022-10-08T02:50:07.146Z,0.00
2022-10-08T02:51:07.118Z,0.00
2022-10-08T02:52:07.099Z,0.00
2022-10-08T02:53:07.088Z,0.00
2022-10-08T02:54:07.082Z,0.00
2022-10-08T02:55:07.078Z,0.00
2022-10-08T02:56:07.060Z,0.00
2022-10-08T02:57:09.523Z,0.00
2022-10-08T02:58:07.034Z,0.00
2022-10-08T02:59:07.025Z,0.00
2022-10-08T03:00:07.030Z,0.00
2022-10-08T03:01:07.064Z,0.00
2022-10-08T03:02:07.031Z,0.00
2022-10-08T03:03:06.979Z,0.00
2022-10-08T03:04:06.969Z,0.00
2022-10-08T03:05:06.971Z,0.00
2022-10-08T03:06:06.966Z,0.00
2022-10-08T03:07:07.010Z,0.00
2022-10-08T03:08:06.923Z,0.00
2022-10-08T03:09:06.931Z,0.00
2022-10-08T03:10:06.912Z,0.00
2022-10-08T03:11:06.889Z,0.00
2022-10-08T03:12:06.888Z,0.00
2022-10-08T03:13:06.868Z,0.00
2022-10-08T03:14:06.859Z,0.00
2022-10-08T03:15:06.857Z,0.00
2022-10-08T03:16:06.836Z,0.00
2022-10-08T03:17:06.825Z,0.00
2022-10-08T03:18:06.816Z,0.00
2022-10-08T03:19:06.803Z,0.00
2022-10-08T03:20:06.808Z,0.00
2022-10-08T03:21:06.784Z,0.00
2022-10-08T03:22:06.789Z,0.00
2022-10-08T03:23:06.772Z,0.00
2022-10-08T03:24:06.750Z,0.00
2022-10-08T03:25:06.751Z,0.00
2022-10-08T03:26:06.729Z,0.00
2022-10-08T03:27:06.746Z,0.00
2022-10-08T03:28:06.741Z,0.00
2022-10-08T03:29:06.700Z,0.00
2022-10-08T03:30:06.692Z,0.00
2022-10-08T03:31:06.855Z,0.00
2022-10-08T03:32:06.661Z,0.00
2022-10-08T03:33:06.652Z,0.00
2022-10-08T03:34:06.640Z,0.00
2022-10-08T03:35:06.638Z,0.00
2022-10-08T03:36:06.617Z,0.00
2022-10-08T03:37:06.607Z,0.00
2022-10-08T03:38:06.697Z,0.00
2022-10-08T03:39:06.586Z,0.00
2022-10-08T03:40:06.587Z,0.00
2022-10-08T03:41:06.576Z,0.00
2022-10-08T03:42:06.563Z,0.00
2022-10-08T03:43:06.541Z,0.00
2022-10-08T03:44:06.533Z,0.00
2022-10-08T03:45:06.531Z,0.00
2022-10-08T03:46:06.613Z,0.00
2022-10-08T03:47:06.503Z,0.00
2022-10-08T03:48:06.487Z,0.00
2022-10-08T03:49:06.478Z,0.00
2022-10-08T03:50:06.477Z,0.00
2022-10-08T03:51:06.462Z,0.00
2022-10-08T03:52:06.443Z,0.00
2022-10-08T03:53:06.433Z,0.00
2022-10-08T03:54:06.553Z,0.00
2022-10-08T03:55:06.425Z,0.00
2022-10-08T03:56:06.400Z,0.00
2022-10-08T03:57:06.468Z,0.00
2022-10-08T03:58:06.380Z,0.00
2022-10-08T03:59:06.381Z,0.00
2022-10-08T04:00:06.365Z,0.00
2022-10-08T04:01:06.371Z,0.00
2022-10-08T04:02:06.335Z,0.00
2022-10-08T04:03:06.417Z,0.00
2022-10-08T04:04:06.314Z,0.00
2022-10-08T04:05:06.314Z,0.00
2022-10-08T04:06:06.292Z,0.00
2022-10-08T04:07:06.281Z,0.00
2022-10-08T04:08:06.268Z,0.00
2022-10-08T04:09:06.261Z,0.00
2022-10-08T04:10:06.274Z,0.00
2022-10-08T04:11:06.238Z,0.00
2022-10-08T04:12:06.229Z,0.00
2022-10-08T04:13:06.215Z,0.00
2022-10-08T04:14:06.205Z,0.00
2022-10-08T04:15:06.211Z,0.00
2022-10-08T04:16:06.224Z,0.00
2022-10-08T04:17:06.171Z,0.00
2022-10-08T04:18:06.159Z,0.00
2022-10-08T04:19:06.154Z,0.00
2022-10-08T04:20:06.150Z,0.00
2022-10-08T04:21:06.129Z,0.00
2022-10-08T04:22:06.116Z,0.00
2022-10-08T04:23:06.106Z,0.00
2022-10-08T04:24:06.116Z,0.00
2022-10-08T04:25:06.097Z,0.00
2022-10-08T04:26:06.089Z,0.00
2022-10-08T04:27:06.064Z,0.00
2022-10-08T04:28:06.111Z,0.00
2022-10-08T04:29:06.053Z,0.00
2022-10-08T04:30:06.029Z,0.00
2022-10-08T04:31:06.119Z,0.00
2022-10-08T04:32:06.007Z,0.00
2022-10-08T04:33:05.996Z,0.00
2022-10-08T04:34:06.000Z,0.00
2022-10-08T04:35:05.975Z,0.00
2022-10-08T04:36:05.962Z,0.00
2022-10-08T04:37:06.053Z,0.00
2022-10-08T04:38:05.942Z,0.00
2022-10-08T04:39:05.952Z,0.00
2022-10-08T04:40:05.917Z,0.00
2022-10-08T04:41:05.910Z,0.00
2022-10-08T04:42:05.915Z,0.00
2022-10-08T04:43:05.888Z,0.00
2022-10-08T04:44:05.885Z,0.00
2022-10-08T04:45:05.867Z,0.00
2022-10-08T04:46:05.912Z,0.00
2022-10-08T04:47:05.846Z,0.00
2022-10-08T04:48:05.832Z,0.00
2022-10-08T04:49:05.837Z,0.00
2022-10-08T04:50:05.811Z,0.00
2022-10-08T04:51:10.027Z,0.00
2022-10-08T04:52:05.788Z,0.00
2022-10-08T04:53:05.778Z,0.00
2022-10-08T04:54:05.776Z,0.00
2022-10-08T04:55:05.757Z,0.00
2022-10-08T04:56:05.760Z,0.00
2022-10-08T04:57:05.736Z,0.00
2022-10-08T04:58:05.740Z,0.00
2022-10-08T04:59:05.726Z,0.00
2022-10-08T05:00:18.231Z,0.00
2022-10-08T05:01:06.690Z,0.00
2022-10-08T05:02:05.762Z,0.00
2022-10-08T05:03:05.707Z,0.00
2022-10-08T05:04:05.666Z,0.00
2022-10-08T05:05:05.647Z,0.00
2022-10-08T05:06:05.635Z,0.00
2022-10-08T05:07:05.630Z,0.00
2022-10-08T05:08:05.614Z,0.00
2022-10-08T05:09:05.615Z,0.00
2022-10-08T05:10:05.591Z,0.00
2022-10-08T05:11:05.584Z,0.00
2022-10-08T05:12:05.570Z,0.00
2022-10-08T05:13:05.604Z,0.00
2022-10-08T05:14:05.579Z,0.00
2022-10-08T05:15:05.538Z,0.00
2022-10-08T05:16:05.577Z,0.00
2022-10-08T05:17:05.518Z,0.00
2022-10-08T05:18:05.505Z,0.00
2022-10-08T05:19:05.596Z,0.00
2022-10-08T05:20:05.485Z,0.00
2022-10-08T05:21:05.476Z,5.62
2022-10-08T05:22:05.495Z,5.62
2022-10-08T05:23:05.456Z,5.62
2022-10-08T05:24:05.451Z,5.62
2022-10-08T05:25:05.432Z,5.62
2022-10-08T05:26:05.417Z,5.62
2022-10-08T05:27:05.436Z,5.62
2022-10-08T05:28:05.424Z,11.25
2022-10-08T05:29:05.402Z,11.25
2022-10-08T05:30:05.501Z,11.25
2022-10-08T05:31:05.442Z,11.25
2022-10-08T05:32:05.400Z,11.25
2022-10-08T05:33:05.355Z,11.25
2022-10-08T05:34:05.363Z,11.25
2022-10-08T05:35:05.348Z,11.25
2022-10-08T05:36:05.310Z,11.25
2022-10-08T05:37:05.301Z,11.25
2022-10-08T05:38:05.309Z,11.25
2022-10-08T05:39:05.317Z,11.25
2022-10-08T05:40:05.274Z,11.25
2022-10-08T05:41:05.274Z,11.25
2022-10-08T05:42:05.244Z,16.88
2022-10-08T05:43:05.288Z,16.88
2022-10-08T05:44:05.270Z,16.88
2022-10-08T05:45:05.260Z,16.88
2022-10-08T05:46:05.317Z,16.88
2022-10-08T05:47:05.194Z,16.88
2022-10-08T05:48:05.184Z,16.88
2022-10-08T05:49:05.185Z,16.88
2022-10-08T05:50:05.176Z,16.88
2022-10-08T05:51:05.147Z,22.50
2022-10-08T05:52:05.136Z,22.50
2022-10-08T05:53:09.088Z,22.50
2022-10-08T05:54:05.129Z,22.50
2022-10-08T05:55:05.110Z,28.12
2022-10-08T05:56:05.092Z,28.12
2022-10-08T05:57:05.094Z,28.12
2022-10-08T05:58:05.069Z,28.12
2022-10-08T05:59:05.074Z,33.75
2022-10-08T06:00:05.057Z,33.75
2022-10-08T06:01:05.038Z,33.75
2022-10-08T06:02:05.054Z,33.75
2022-10-08T06:03:05.075Z,33.75
2022-10-08T06:04:08.779Z,33.75
2022-10-08T06:05:05.143Z,33.75
2022-10-08T06:06:04.981Z,33.75
2022-10-08T06:07:04.973Z,33.75
2022-10-08T06:08:04.960Z,33.75
2022-10-08T06:09:04.967Z,33.75
2022-10-08T06:10:04.941Z,33.75
2022-10-08T06:11:04.933Z,39.38
2022-10-08T06:12:04.917Z,39.38
2022-10-08T06:13:04.929Z,39.38
2022-10-08T06:14:04.963Z,39.38
2022-10-08T06:15:04.887Z,45.00
2022-10-08T06:16:04.956Z,45.00
2022-10-08T06:17:04.888Z,45.00
2022-10-08T06:18:04.880Z,50.62
2022-10-08T06:19:05.111Z,50.62
2022-10-08T06:20:04.856Z,50.62
2022-10-08T06:21:04.820Z,50.62
2022-10-08T06:22:04.811Z,50.62
2022-10-08T06:23:04.836Z,50.62
2022-10-08T06:24:04.819Z,56.25
2022-10-08T06:25:04.817Z,56.25
2022-10-08T06:26:04.770Z,61.88
2022-10-08T06:27:04.761Z,73.12
2022-10-08T06:28:04.803Z,90.00
2022-10-08T06:29:04.744Z,112.50
2022-10-08T06:30:04.720Z,185.62
2022-10-08T06:31:04.794Z,450.00
2022-10-08T06:32:04.697Z,225.00
2022-10-08T06:33:04.688Z,163.12
2022-10-08T06:34:05.029Z,90.00
2022-10-08T06:35:04.666Z,73.12
2022-10-08T06:36:04.654Z,73.12
2022-10-08T06:37:04.647Z,73.12
2022-10-08T06:38:04.641Z,78.75
2022-10-08T06:39:04.657Z,84.38
2022-10-08T06:40:04.610Z,101.25
2022-10-08T06:41:04.636Z,185.62
2022-10-08T06:42:04.591Z,168.75
2022-10-08T06:43:04.582Z,135.00
2022-10-08T06:44:04.580Z,123.75
2022-10-08T06:45:04.575Z,129.38
2022-10-08T06:46:04.546Z,219.38
2022-10-08T06:47:04.582Z,258.75
2022-10-08T06:48:04.570Z,360.00
2022-10-08T06:49:04.515Z,253.12
2022-10-08T06:50:04.534Z,258.75
2022-10-08T06:51:04.523Z,315.00
2022-10-08T06:52:04.480Z,376.88
2022-10-08T06:53:04.482Z,410.62
2022-10-08T06:54:07.742Z,281.25
2022-10-08T06:55:04.452Z,236.25
2022-10-08T06:56:04.438Z,219.38
2022-10-08T06:57:04.427Z,230.62
2022-10-08T06:58:04.457Z,326.25
2022-10-08T06:59:04.407Z,545.62
2022-10-08T07:00:04.393Z,810.00
2022-10-08T07:01:04.429Z,1074.38
2022-10-08T07:02:04.439Z,1321.88
2022-10-08T07:03:04.382Z,1456.88
2022-10-08T07:04:04.361Z,1468.12
2022-10-08T07:05:04.345Z,1496.25
2022-10-08T07:06:04.344Z,1507.50
2022-10-08T07:07:04.320Z,427.50
2022-10-08T07:08:04.318Z,461.25
2022-10-08T07:09:04.297Z,410.62
2022-10-08T07:10:04.286Z,500.62
2022-10-08T07:11:04.275Z,320.62
2022-10-08T07:12:04.262Z,292.50
2022-10-08T07:13:04.272Z,916.88
2022-10-08T07:14:04.245Z,596.25
2022-10-08T07:15:04.232Z,151.88
2022-10-08T07:16:04.276Z,140.62
2022-10-08T07:17:04.210Z,174.38
2022-10-08T07:18:04.208Z,253.12
2022-10-08T07:19:04.192Z,545.62
2022-10-08T07:20:04.177Z,804.38
2022-10-08T07:21:04.168Z,360.00
2022-10-08T07:22:04.177Z,191.25
2022-10-08T07:23:04.159Z,174.38
2022-10-08T07:24:04.133Z,185.62
2022-10-08T07:25:04.125Z,1788.75
2022-10-08T07:26:04.132Z,1895.62
2022-10-08T07:27:04.105Z,1839.38
2022-10-08T07:28:04.199Z,1912.50
2022-10-08T07:29:04.085Z,1895.62
2022-10-08T07:30:04.100Z,1923.75
2022-10-08T07:31:04.107Z,1980.00
2022-10-08T07:32:04.052Z,1676.25
2022-10-08T07:33:04.066Z,1546.88
2022-10-08T07:34:04.038Z,2086.88
2022-10-08T07:35:04.017Z,1327.50
2022-10-08T07:36:04.009Z,2283.75
2022-10-08T07:37:03.996Z,2317.50
2022-10-08T07:38:04.009Z,2210.62
2022-10-08T07:39:04.093Z,1923.75
2022-10-08T07:40:03.960Z,2317.50
2022-10-08T07:41:03.952Z,2396.25
2022-10-08T07:42:03.946Z,2491.88
2022-10-08T07:43:03.942Z,2486.25
2022-10-08T07:44:03.920Z,2424.38
2022-10-08T07:45:03.908Z,2407.50
2022-10-08T07:46:03.944Z,2497.50
2022-10-08T07:47:03.888Z,2452.50
2022-10-08T07:48:03.886Z,2480.62
2022-10-08T07:49:03.865Z,2413.12
2022-10-08T07:50:03.855Z,2351.25
2022-10-08T07:51:03.845Z,2452.50
2022-10-08T07:52:03.835Z,2503.12
2022-10-08T07:53:03.840Z,2435.62
2022-10-08T07:54:03.954Z,2390.62
2022-10-08T07:55:03.809Z,2430.00
2022-10-08T07:56:03.794Z,2491.88
2022-10-08T07:57:03.784Z,2171.25
2022-10-08T07:58:03.783Z,2604.38
2022-10-08T07:59:03.763Z,2514.38
2022-10-08T08:00:03.753Z,2497.50
2022-10-08T08:01:03.863Z,2272.50
2022-10-08T08:02:03.819Z,2570.62
2022-10-08T08:03:03.734Z,1968.75
2022-10-08T08:04:03.716Z,2581.88
2022-10-08T08:05:03.701Z,1935.00
2022-10-08T08:06:03.695Z,2626.88
2022-10-08T08:07:03.705Z,2598.75
2022-10-08T08:08:03.686Z,2638.12
2022-10-08T08:09:03.698Z,2700.00
2022-10-08T08:10:03.672Z,2666.25
2022-10-08T08:11:03.652Z,2638.12
2022-10-08T08:12:03.656Z,2671.88
2022-10-08T08:13:03.646Z,2649.38
2022-10-08T08:14:03.613Z,2840.62
2022-10-08T08:15:03.600Z,2801.25
2022-10-08T08:16:03.628Z,2598.75
2022-10-08T08:17:03.598Z,2233.12
2022-10-08T08:18:03.569Z,1816.88
2022-10-08T08:19:03.560Z,1563.75
2022-10-08T08:20:03.551Z,2019.38
2022-10-08T08:21:03.540Z,1974.38
2022-10-08T08:22:03.545Z,1788.75
2022-10-08T08:23:03.520Z,1389.38
2022-10-08T08:24:03.511Z,478.12
2022-10-08T08:25:03.499Z,545.62
2022-10-08T08:26:03.511Z,1153.12
2022-10-08T08:27:03.494Z,1029.38
2022-10-08T08:28:03.550Z,1068.75
2022-10-08T08:29:03.456Z,1113.75
2022-10-08T08:30:03.449Z,1141.88
2022-10-08T08:31:03.450Z,1130.62
2022-10-08T08:32:03.610Z,1130.62
2022-10-08T08:33:03.419Z,1558.12
2022-10-08T08:34:03.410Z,1411.88
2022-10-08T08:35:03.396Z,911.25
2022-10-08T08:36:03.389Z,933.75
2022-10-08T08:37:03.400Z,1006.88
2022-10-08T08:38:03.366Z,1389.38
2022-10-08T08:39:03.359Z,1726.88
2022-10-08T08:40:03.345Z,1749.38
2022-10-08T08:41:03.332Z,1591.88
2022-10-08T08:42:03.351Z,1732.50
2022-10-08T08:43:03.311Z,1642.50
2022-10-08T08:44:03.304Z,1372.50
2022-10-08T08:45:03.291Z,1293.75
2022-10-08T08:46:03.327Z,1237.50
2022-10-08T08:47:03.352Z,1119.38
2022-10-08T08:48:03.263Z,1074.38
2022-10-08T08:49:03.252Z,973.12
2022-10-08T08:50:03.242Z,793.12
2022-10-08T08:51:03.230Z,658.12
2022-10-08T08:52:03.236Z,810.00
2022-10-08T08:53:03.210Z,703.12
2022-10-08T08:54:03.200Z,731.25
2022-10-08T08:55:03.188Z,1080.00
2022-10-08T08:56:03.179Z,1918.12
2022-10-08T08:57:03.178Z,1940.62
2022-10-08T08:58:04.352Z,1462.50
2022-10-08T08:59:03.147Z,1035.00
2022-10-08T09:00:03.136Z,1603.12
2022-10-08T09:01:03.217Z,1434.38
2022-10-08T09:02:03.129Z,2565.00
2022-10-08T09:03:03.103Z,1828.12
2022-10-08T09:04:03.093Z,1895.62
2022-10-08T09:05:03.166Z,1513.12
2022-10-08T09:06:03.072Z,2171.25
2022-10-08T09:07:03.072Z,2868.75
2022-10-08T09:08:03.050Z,3054.38
2022-10-08T09:09:03.068Z,1451.25
2022-10-08T09:10:03.033Z,1558.12
2022-10-08T09:11:03.017Z,2283.75
2022-10-08T09:12:03.076Z,973.12
2022-10-08T09:13:02.996Z,2019.38
2022-10-08T09:14:03.012Z,2576.25
2022-10-08T09:15:02.975Z,1074.38
2022-10-08T09:16:02.973Z,1091.25
2022-10-08T09:17:03.031Z,675.00
2022-10-08T09:18:02.955Z,2722.50
2022-10-08T09:19:02.960Z,3121.88
2022-10-08T09:20:02.927Z,2508.75
2022-10-08T09:21:02.922Z,3375.00
2022-10-08T09:22:02.917Z,1957.50
2022-10-08T09:23:02.902Z,1333.12
2022-10-08T09:24:02.896Z,511.88
2022-10-08T09:25:02.911Z,1940.62
2022-10-08T09:26:02.865Z,686.25
2022-10-08T09:27:02.937Z,3532.50
2022-10-08T09:28:02.894Z,832.50
2022-10-08T09:29:02.859Z,461.25
2022-10-08T09:30:02.837Z,641.25
2022-10-08T09:31:08.056Z,540.00
2022-10-08T09:32:03.817Z,568.12
2022-10-08T09:33:02.811Z,3352.50
2022-10-08T09:34:02.781Z,1248.75
2022-10-08T09:35:02.773Z,607.50
2022-10-08T09:36:02.772Z,1704.38
2022-10-08T09:37:02.758Z,984.38
2022-10-08T09:38:05.853Z,523.12
2022-10-08T09:39:02.725Z,1158.75
2022-10-08T09:40:02.720Z,1845.00
2022-10-08T09:41:02.710Z,630.00
2022-10-08T09:42:02.708Z,1057.50
2022-10-08T09:43:02.684Z,900.00
2022-10-08T09:44:02.674Z,1125.00
2022-10-08T09:45:02.673Z,601.88
2022-10-08T09:46:02.753Z,601.88
2022-10-08T09:47:02.672Z,686.25
2022-10-08T09:48:02.635Z,658.12
2022-10-08T09:49:02.623Z,1288.12
2022-10-08T09:50:02.624Z,618.75
2022-10-08T09:51:02.635Z,472.50
2022-10-08T09:52:02.602Z,472.50
2022-10-08T09:53:02.577Z,483.75
2022-10-08T09:54:02.571Z,635.62
2022-10-08T09:55:02.556Z,331.88
2022-10-08T09:56:02.547Z,275.62
2022-10-08T09:57:02.547Z,225.00
2022-10-08T09:58:02.525Z,185.62
2022-10-08T09:59:02.514Z,180.00
2022-10-08T10:00:02.521Z,185.62
2022-10-08T10:01:02.531Z,236.25
2022-10-08T10:02:02.525Z,247.50
2022-10-08T10:03:02.470Z,219.38
2022-10-08T10:04:02.583Z,196.88
2022-10-08T10:05:02.470Z,258.75
2022-10-08T10:06:02.465Z,810.00
2022-10-08T10:07:02.439Z,208.12
2022-10-08T10:08:02.420Z,196.88
2022-10-08T10:09:02.417Z,371.25
2022-10-08T10:10:02.402Z,326.25
2022-10-08T10:11:02.399Z,348.75
2022-10-08T10:12:02.385Z,191.25
2022-10-08T10:13:02.363Z,236.25
2022-10-08T10:14:02.356Z,1681.88
2022-10-08T10:15:02.341Z,596.25
2022-10-08T10:16:02.330Z,2857.50
2022-10-08T10:17:02.383Z,731.25
2022-10-08T10:18:02.324Z,585.00
2022-10-08T10:19:02.294Z,444.38
2022-10-08T10:20:02.286Z,326.25
2022-10-08T10:21:02.275Z,286.88
2022-10-08T10:22:02.293Z,253.12
2022-10-08T10:23:02.258Z,270.00
2022-10-08T10:24:02.241Z,219.38
2022-10-08T10:25:02.231Z,191.25
2022-10-08T10:26:06.306Z,168.75
2022-10-08T10:27:02.222Z,180.00
2022-10-08T10:28:02.230Z,202.50
2022-10-08T10:29:02.209Z,202.50
2022-10-08T10:30:02.184Z,208.12
2022-10-08T10:31:02.286Z,236.25
2022-10-08T10:32:02.155Z,320.62
2022-10-08T10:33:02.141Z,315.00
2022-10-08T10:34:02.146Z,213.75
2022-10-08T10:35:02.119Z,196.88
2022-10-08T10:36:02.120Z,191.25
2022-10-08T10:37:02.097Z,202.50
2022-10-08T10:38:02.108Z,253.12
2022-10-08T10:39:02.082Z,298.12
2022-10-08T10:40:02.077Z,275.62
2022-10-08T10:41:02.071Z,281.25
2022-10-08T10:42:02.044Z,247.50
2022-10-08T10:43:02.034Z,196.88
2022-10-08T10:44:02.040Z,151.88
2022-10-08T10:45:02.010Z,129.38
2022-10-08T10:46:02.046Z,118.12
2022-10-08T10:47:02.000Z,118.12
2022-10-08T10:48:02.001Z,123.75
2022-10-08T10:49:01.970Z,112.50
2022-10-08T10:50:01.973Z,101.25
2022-10-08T10:51:01.959Z,123.75
2022-10-08T10:52:01.941Z,157.50
2022-10-08T10:53:01.923Z,180.00
2022-10-08T10:54:01.916Z,185.62
2022-10-08T10:55:01.904Z,157.50
2022-10-08T10:56:01.904Z,135.00
2022-10-08T10:57:01.882Z,106.88
2022-10-08T10:58:01.895Z,95.62
2022-10-08T10:59:01.861Z,84.38
2022-10-08T11:00:01.854Z,73.12
2022-10-08T11:01:01.985Z,73.12
2022-10-08T11:02:01.832Z,73.12
2022-10-08T11:03:01.967Z,78.75
2022-10-08T11:04:01.826Z,84.38
2022-10-08T11:05:02.299Z,84.38
2022-10-08T11:06:01.831Z,84.38
2022-10-08T11:07:01.781Z,90.00
2022-10-08T11:08:01.767Z,101.25
2022-10-08T11:09:01.757Z,101.25
2022-10-08T11:10:01.747Z,101.25
2022-10-08T11:11:01.776Z,106.88
2022-10-08T11:12:01.727Z,106.88
2022-10-08T11:13:01.729Z,106.88
2022-10-08T11:14:01.706Z,106.88
2022-10-08T11:15:01.700Z,106.88
2022-10-08T11:16:01.744Z,106.88
2022-10-08T11:17:01.673Z,95.62
2022-10-08T11:18:01.659Z,90.00
2022-10-08T11:19:01.676Z,84.38
2022-10-08T11:20:01.651Z,73.12
2022-10-08T11:21:01.637Z,78.75
2022-10-08T11:22:01.633Z,84.38
2022-10-08T11:23:01.604Z,84.38
2022-10-08T11:24:01.595Z,84.38
2022-10-08T11:25:01.596Z,78.75
2022-10-08T11:27:02.560Z,61.88
2022-10-08T11:28:01.611Z,56.25
2022-10-08T11:29:01.552Z,56.25
2022-10-08T11:30:01.560Z,56.25
2022-10-08T11:31:01.629Z,50.62
2022-10-08T11:32:01.520Z,39.38
2022-10-08T11:33:01.518Z,33.75
2022-10-08T11:34:01.486Z,33.75
2022-10-08T11:35:01.476Z,39.38
2022-10-08T11:36:01.478Z,45.00
2022-10-08T11:37:01.454Z,45.00
2022-10-08T11:38:01.465Z,45.00
2022-10-08T11:39:01.432Z,45.00
2022-10-08T11:40:01.424Z,45.00
2022-10-08T11:41:01.445Z,45.00
2022-10-08T11:42:01.402Z,39.38
2022-10-08T11:43:01.398Z,33.75
2022-10-08T11:44:01.385Z,39.38
2022-10-08T11:45:01.381Z,50.62
2022-10-08T11:46:01.437Z,61.88
2022-10-08T11:47:01.345Z,45.00
2022-10-08T11:48:01.336Z,45.00
2022-10-08T11:49:01.363Z,56.25
2022-10-08T11:50:01.315Z,67.50
2022-10-08T11:51:01.314Z,78.75
2022-10-08T11:52:01.292Z,73.12
2022-10-08T11:53:01.295Z,73.12
2022-10-08T11:54:01.293Z,84.38
2022-10-08T11:55:01.260Z,84.38
2022-10-08T11:56:01.261Z,90.00
2022-10-08T11:57:01.269Z,95.62
2022-10-08T11:58:09.383Z,101.25
2022-10-08T11:59:02.216Z,101.25
2022-10-08T12:00:07.821Z,106.88
2022-10-08T12:01:02.209Z,118.12
2022-10-08T12:02:01.247Z,123.75
2022-10-08T12:03:01.395Z,129.38
2022-10-08T12:04:01.162Z,123.75
2022-10-08T12:05:01.165Z,129.38
2022-10-08T12:06:01.154Z,140.62
2022-10-08T12:07:01.137Z,151.88
2022-10-08T12:08:01.128Z,163.12
2022-10-08T12:09:01.112Z,185.62
2022-10-08T12:10:01.121Z,208.12
2022-10-08T12:11:01.125Z,219.38
2022-10-08T12:12:01.077Z,230.62
2022-10-08T12:13:01.071Z,230.62
2022-10-08T12:14:01.059Z,225.00
2022-10-08T12:15:01.044Z,219.38
2022-10-08T12:16:01.080Z,219.38
2022-10-08T12:17:01.026Z,253.12
2022-10-08T12:18:01.039Z,264.38
2022-10-08T12:19:01.001Z,230.62
2022-10-08T12:20:00.993Z,208.12
2022-10-08T12:21:00.990Z,196.88
2022-10-08T12:22:00.968Z,174.38
2022-10-08T12:23:00.958Z,168.75
2022-10-08T12:24:00.946Z,168.75
2022-10-08T12:25:00.936Z,196.88
2022-10-08T12:26:00.987Z,208.12
2022-10-08T12:27:00.919Z,213.75
2022-10-08T12:28:00.997Z,219.38
2022-10-08T12:29:00.917Z,219.38
2022-10-08T12:30:00.896Z,213.75
2022-10-08T12:31:00.935Z,208.12
2022-10-08T12:32:00.875Z,208.12
2022-10-08T12:33:00.861Z,208.12
2022-10-08T12:34:00.845Z,219.38
2022-10-08T12:35:00.829Z,213.75
2022-10-08T12:36:00.874Z,241.88
2022-10-08T12:37:02.019Z,225.00
2022-10-08T12:38:00.801Z,213.75
2022-10-08T12:39:00.785Z,219.38
2022-10-08T12:40:00.783Z,219.38
2022-10-08T12:41:00.783Z,208.12
2022-10-08T12:42:00.783Z,174.38
2022-10-08T12:43:00.741Z,163.12
2022-10-08T12:44:00.731Z,151.88
2022-10-08T12:45:00.723Z,146.25
2022-10-08T12:46:00.715Z,151.88
2022-10-08T12:47:00.763Z,157.50
2022-10-08T12:48:00.687Z,174.38
2022-10-08T12:49:00.676Z,185.62